Diamonds Are Forever — ZGCE4 — position and weather

sailwx.info

Track history (hours):
 
Tides and Currents Weather Stations Pressure Air Temp Water Temp Dewpoint Dewpoint Depression Visibility Wind Speed Wind Dir Waves Ship Positions

Diamonds Are Forever

Last reported at 2014-Jul-09 03:13 UTC. Time now 2014-Jul-30 09:06 UTC.
Position N 26°45' W 080°03'.
Warning: this ship's position is 21 days out of date.

Length 60 m; draft 0.4 m.

Type: Ship. MMSI: 319806000.

Date/timePositionNaut miles runAvg speedWind from/ knotsBaromVisibWave heightAir tempDewpointWater temp
2014-Jul-09 03:13N 26°45' W 080°03'0 0.0
2014-Jul-09 02:27N 26°45' W 080°03'  
2014-Jul-06 00:12N 26°46' W 080°03'6 7.5
2014-Jul-05 23:27N 26°41' W 079°60'1213.8
2014-Jul-05 22:33N 26°28' W 080°01'1514.6
2014-Jul-05 21:33N 26°14' W 080°02'1515.3
2014-Jul-05 20:33N 25°59' W 080°03'13 0.5
2014-Jul-04 18:33N 25°46' W 080°08'1211.6
2014-Jul-04 17:33N 25°51' W 079°56'1211.8
2014-Jul-04 16:33N 25°57' W 079°45'1111.0
2014-Jul-04 15:32N 26°01' W 079°34'  
2014-Jun-29 08:33N 26°12' W 078°55'1312.7
2014-Jun-29 07:33N 26°12' W 079°09'2612.8
2014-Jun-29 05:33N 26°01' W 079°35'1413.7
2014-Jun-29 04:33N 25°54' W 079°48'1514.1
2014-Jun-29 03:29N 25°47' W 080°03'  
Track history (hours):
 
Tides and Currents Weather Stations Pressure Air Temp Water Temp Dewpoint Dewpoint Depression Visibility Wind Speed Wind Dir Waves Ship Positions

Diamonds Are Forever

Last reported at 2014-Jul-09 03:13 UTC. Time now 2014-Jul-30 09:06 UTC.
Position N 26°45' W 080°03'.
Warning: this ship's position is 21 days out of date.

Length 60 m; draft 0.4 m.

Type: Ship. MMSI: 319806000.

Date/timePositionNaut miles runAvg speedWind from/ knotsBaromVisibWave heightAir tempDewpointWater temp
2014-Jul-09 03:13N 26°45' W 080°03'0 0.0
2014-Jul-09 02:27N 26°45' W 080°03'  
2014-Jul-06 00:12N 26°46' W 080°03'6 7.5
2014-Jul-05 23:27N 26°41' W 079°60'1213.8
2014-Jul-05 22:33N 26°28' W 080°01'1514.6
2014-Jul-05 21:33N 26°14' W 080°02'1515.3
2014-Jul-05 20:33N 25°59' W 080°03'13 0.5
2014-Jul-04 18:33N 25°46' W 080°08'1211.6
2014-Jul-04 17:33N 25°51' W 079°56'1211.8
2014-Jul-04 16:33N 25°57' W 079°45'1111.0
2014-Jul-04 15:32N 26°01' W 079°34'  
2014-Jun-29 08:33N 26°12' W 078°55'1312.7
2014-Jun-29 07:33N 26°12' W 079°09'2612.8
2014-Jun-29 05:33N 26°01' W 079°35'1413.7
2014-Jun-29 04:33N 25°54' W 079°48'1514.1
2014-Jun-29 03:29N 25°47' W 080°03'  

Dump ship's entire track history